createdAt,value
2022-09-15T00:09:58.718Z,11.33
2022-09-15T00:40:01.470Z,7.57
2022-09-15T01:10:05.394Z,8.87
2022-09-15T01:40:08.214Z,9.67
2022-09-15T02:10:12.609Z,7.87
2022-09-15T02:40:15.376Z,7.10
2022-09-15T03:10:19.417Z,6.60
2022-09-15T03:40:22.405Z,6.37
2022-09-15T04:10:25.721Z,6.63
2022-09-15T04:40:28.737Z,10.20
2022-09-15T05:10:32.374Z,10.50
2022-09-15T05:40:35.167Z,8.30
2022-09-15T06:10:39.332Z,8.27
2022-09-15T06:40:42.042Z,11.13
2022-09-15T07:10:46.154Z,6.53
2022-09-15T07:40:48.872Z,6.73
2022-09-15T08:10:52.698Z,5.80
2022-09-15T08:40:55.390Z,5.75
2022-09-15T09:10:59.177Z,4.40
2022-09-15T09:41:02.732Z,3.33
2022-09-15T10:11:06.541Z,3.70
2022-09-15T10:41:09.558Z,5.83
2022-09-15T11:11:13.468Z,3.43
2022-09-15T11:41:16.764Z,4.03
2022-09-15T12:11:22.967Z,3.45
2022-09-15T12:41:26.899Z,3.03
2022-09-15T13:11:31.289Z,3.03
2022-09-15T13:41:34.453Z,2.53
2022-09-15T14:11:37.808Z,5.50
2022-09-15T14:41:41.266Z,1.70
2022-09-15T15:11:44.539Z,3.90
2022-09-15T16:11:52.669Z,2.20
2022-09-15T16:41:56.764Z,2.60
2022-09-15T17:12:00.343Z,2.63
2022-09-15T17:42:03.556Z,3.67
2022-09-15T18:12:07.492Z,5.57
2022-09-15T18:42:10.657Z,3.73
2022-09-15T19:12:13.756Z,4.27
2022-09-15T19:42:17.663Z,4.35
2022-09-15T20:12:22.296Z,6.13
2022-09-15T20:42:26.537Z,2.70
2022-09-15T21:12:30.423Z,2.80
2022-09-15T21:42:34.775Z,3.10
2022-09-15T22:12:38.201Z,3.33
2022-09-15T22:42:41.005Z,3.47
2022-09-15T23:12:46.454Z,3.35
2022-09-15T23:42:49.310Z,5.33
